createdAt,value
2022-12-16T00:01:41.892Z,137.33
2022-12-16T00:04:43.916Z,92.23
2022-12-16T00:07:47.148Z,121.73
2022-12-16T00:10:55.243Z,128.10
2022-12-16T00:13:57.299Z,91.30
2022-12-16T00:16:59.209Z,141.77
2022-12-16T00:20:03.125Z,97.87
2022-12-16T00:23:05.069Z,102.33
2022-12-16T00:26:08.723Z,97.23
2022-12-16T00:29:11.536Z,88.17
2022-12-16T00:32:13.398Z,83.17
2022-12-16T00:35:15.278Z,74.47
2022-12-16T00:38:18.889Z,103.33
2022-12-16T00:41:20.982Z,83.53
2022-12-16T00:44:23.019Z,77.90
2022-12-16T00:47:24.842Z,91.20
2022-12-16T00:50:27.123Z,74.53
2022-12-16T00:53:29.530Z,62.40
2022-12-16T00:56:31.724Z,66.23
2022-12-16T00:59:33.588Z,63.47
2022-12-16T01:02:35.658Z,55.60
2022-12-16T01:05:38.814Z,57.47
2022-12-16T01:08:41.235Z,59.10
2022-12-16T01:11:43.125Z,51.30
2022-12-16T01:14:45.884Z,51.43
2022-12-16T01:17:47.906Z,56.97
2022-12-16T01:20:49.966Z,54.10
2022-12-16T01:23:55.062Z,50.03
2022-12-16T01:26:57.201Z,50.07
2022-12-16T01:29:59.040Z,53.27
2022-12-16T01:33:01.023Z,44.97
2022-12-16T01:36:06.314Z,43.70
2022-12-16T01:39:12.049Z,41.73
2022-12-16T01:42:18.939Z,46.87
2022-12-16T01:45:31.145Z,40.80
2022-12-16T01:48:46.223Z,41.33
2022-12-16T01:51:52.501Z,44.63
2022-12-16T01:55:01.044Z,42.07
2022-12-16T01:58:25.807Z,41.70
2022-12-16T02:01:27.872Z,45.77
2022-12-16T02:04:30.019Z,46.13
2022-12-16T02:07:32.036Z,41.67
2022-12-16T02:10:43.653Z,44.03
2022-12-16T02:13:51.568Z,41.80
2022-12-16T02:16:55.827Z,49.93
2022-12-16T02:20:16.579Z,47.50
2022-12-16T02:23:58.795Z,46.57
2022-12-16T02:27:10.633Z,46.07
2022-12-16T02:30:28.014Z,44.47
2022-12-16T02:33:51.281Z,46.27
2022-12-16T02:37:27.320Z,43.07
2022-12-16T02:40:56.351Z,44.07
2022-12-16T02:44:02.959Z,43.63
2022-12-16T02:47:04.935Z,50.43
2022-12-16T02:50:41.901Z,46.80
2022-12-16T02:53:44.968Z,45.93
2022-12-16T02:57:09.276Z,42.67
2022-12-16T03:00:13.372Z,47.23
2022-12-16T03:03:25.149Z,46.60
2022-12-16T03:06:27.885Z,43.97
2022-12-16T03:09:33.115Z,48.10
2022-12-16T03:12:35.879Z,43.40
2022-12-16T03:15:39.339Z,45.13
2022-12-16T03:18:44.327Z,44.40
2022-12-16T03:21:54.814Z,39.73
2022-12-16T03:24:57.256Z,43.23
2022-12-16T03:28:11.980Z,37.30
2022-12-16T03:31:30.476Z,38.53
2022-12-16T03:34:40.105Z,37.73
2022-12-16T03:37:43.431Z,38.03
2022-12-16T03:40:46.433Z,34.87
2022-12-16T03:43:49.580Z,35.13
2022-12-16T03:46:52.446Z,32.67
2022-12-16T03:49:54.392Z,33.73
2022-12-16T03:52:56.495Z,31.80
2022-12-16T03:55:58.351Z,38.70
2022-12-16T03:59:00.506Z,35.67
2022-12-16T04:02:02.578Z,35.30
2022-12-16T04:05:05.125Z,37.23
2022-12-16T04:08:07.536Z,33.30
2022-12-16T04:11:28.043Z,35.63
2022-12-16T04:14:53.254Z,34.70
2022-12-16T04:18:14.227Z,32.43
2022-12-16T04:21:34.969Z,40.07
2022-12-16T04:24:36.894Z,32.27
2022-12-16T04:27:39.175Z,32.07
2022-12-16T04:30:41.059Z,32.27
2022-12-16T04:34:01.781Z,29.40
2022-12-16T04:37:22.013Z,34.63
2022-12-16T04:40:44.265Z,27.77
2022-12-16T04:44:05.010Z,26.37
2022-12-16T04:47:25.635Z,27.07
2022-12-16T04:50:46.493Z,30.13
2022-12-16T04:54:07.172Z,32.03
2022-12-16T04:57:27.822Z,30.90
2022-12-16T05:00:48.339Z,33.57
2022-12-16T05:04:08.679Z,32.43
2022-12-16T05:07:33.358Z,30.53
2022-12-16T05:10:58.559Z,31.40
2022-12-16T05:14:19.845Z,35.70
2022-12-16T05:17:41.422Z,26.83
2022-12-16T05:21:03.127Z,25.87
2022-12-16T05:24:23.844Z,30.03
2022-12-16T05:27:44.499Z,27.93
2022-12-16T05:31:05.748Z,27.43
2022-12-16T05:34:28.262Z,34.77
2022-12-16T05:37:48.921Z,27.50
2022-12-16T05:41:10.727Z,26.00
2022-12-16T05:44:31.365Z,25.93
2022-12-16T05:47:52.054Z,30.60
2022-12-16T05:51:12.736Z,28.83
2022-12-16T05:54:33.186Z,27.50
2022-12-16T05:57:56.831Z,25.83
2022-12-16T06:01:18.290Z,28.03
2022-12-16T06:04:38.913Z,30.80
2022-12-16T06:07:59.447Z,23.53
2022-12-16T06:11:19.773Z,26.17
2022-12-16T06:14:40.453Z,25.27
2022-12-16T06:18:02.731Z,25.53
2022-12-16T06:21:26.674Z,26.07
2022-12-16T06:24:47.449Z,23.37
2022-12-16T06:28:12.860Z,23.87
2022-12-16T06:31:33.576Z,23.57
2022-12-16T06:34:54.286Z,23.67
2022-12-16T06:38:14.897Z,24.43
2022-12-16T06:41:35.552Z,27.70
2022-12-16T06:44:56.235Z,29.87
2022-12-16T06:48:16.995Z,30.83
2022-12-16T06:51:37.581Z,22.33
2022-12-16T06:54:58.358Z,25.43
2022-12-16T06:58:19.693Z,23.30
2022-12-16T07:01:40.183Z,23.33
2022-12-16T07:05:00.833Z,24.63
2022-12-16T07:08:21.311Z,24.47
2022-12-16T07:11:42.036Z,24.03
2022-12-16T07:15:02.757Z,28.27
2022-12-16T07:18:23.457Z,28.73
2022-12-16T07:21:44.105Z,24.00
2022-12-16T07:25:04.688Z,27.23
2022-12-16T07:28:25.638Z,23.60
2022-12-16T07:31:46.434Z,24.90
2022-12-16T07:35:08.080Z,27.97
2022-12-16T07:38:28.740Z,25.73
2022-12-16T07:41:49.898Z,27.63
2022-12-16T07:45:10.667Z,25.00
2022-12-16T07:48:31.261Z,33.63
2022-12-16T07:51:51.780Z,33.63
2022-12-16T07:55:13.548Z,36.20
2022-12-16T07:58:34.290Z,33.73
2022-12-16T08:01:55.286Z,35.77
2022-12-16T08:05:16.041Z,37.27
2022-12-16T08:08:36.582Z,38.93
2022-12-16T08:11:57.141Z,35.33
2022-12-16T08:15:17.944Z,33.00
2022-12-16T08:18:38.660Z,32.70
2022-12-16T08:21:59.304Z,31.63
2022-12-16T08:25:20.072Z,40.60
2022-12-16T08:28:41.086Z,40.83
2022-12-16T08:32:01.726Z,36.13
2022-12-16T08:35:40.107Z,30.70
2022-12-16T08:39:00.727Z,30.93
2022-12-16T08:42:21.114Z,31.53
2022-12-16T08:45:41.867Z,34.13
2022-12-16T08:49:02.699Z,33.97
2022-12-16T08:52:23.868Z,36.17
2022-12-16T08:55:45.619Z,33.40
2022-12-16T08:59:06.128Z,35.67
2022-12-16T09:02:30.306Z,32.43
2022-12-16T09:05:51.309Z,33.60
2022-12-16T09:09:12.115Z,33.40
2022-12-16T09:12:32.812Z,36.23
2022-12-16T09:15:54.175Z,35.13
2022-12-16T09:19:14.731Z,33.53
2022-12-16T09:22:35.301Z,33.73
2022-12-16T09:25:55.706Z,30.40
2022-12-16T09:29:16.811Z,37.63
2022-12-16T09:32:37.235Z,36.60
2022-12-16T09:35:58.127Z,36.23
2022-12-16T09:39:18.800Z,33.63
2022-12-16T09:42:58.075Z,35.93
2022-12-16T09:46:35.106Z,34.07
2022-12-16T09:50:14.994Z,35.37
2022-12-16T09:53:40.197Z,39.80
2022-12-16T09:57:01.835Z,35.73
2022-12-16T10:00:40.632Z,36.83
2022-12-16T10:04:01.432Z,28.90
2022-12-16T10:07:22.236Z,32.90
2022-12-16T10:11:15.655Z,42.50
2022-12-16T10:14:43.479Z,35.30
2022-12-16T10:18:06.020Z,33.33
2022-12-16T10:21:32.339Z,32.37
2022-12-16T10:25:07.180Z,30.20
2022-12-16T10:28:33.726Z,28.50
2022-12-16T10:31:56.396Z,29.83
2022-12-16T10:35:16.991Z,29.10
2022-12-16T10:38:44.435Z,29.80
2022-12-16T10:42:09.341Z,34.97
2022-12-16T10:45:43.069Z,33.63
2022-12-16T10:49:03.891Z,31.07
2022-12-16T10:52:25.508Z,27.23
2022-12-16T10:56:30.671Z,31.73
2022-12-16T10:59:56.372Z,25.50
2022-12-16T11:03:36.168Z,31.77
2022-12-16T11:06:59.164Z,31.23
2022-12-16T11:10:22.956Z,33.37
2022-12-16T11:13:43.868Z,29.87
2022-12-16T11:17:15.123Z,26.67
2022-12-16T11:20:43.056Z,26.97
2022-12-16T11:24:03.614Z,29.77
2022-12-16T11:27:44.736Z,27.97
2022-12-16T11:31:13.579Z,29.60
2022-12-16T11:34:34.094Z,31.10
2022-12-16T11:37:55.157Z,34.33
2022-12-16T11:41:37.251Z,27.73
2022-12-16T11:45:09.818Z,31.63
2022-12-16T11:49:12.099Z,29.93
2022-12-16T11:52:37.422Z,27.63
2022-12-16T11:56:07.995Z,26.17
2022-12-16T11:59:41.113Z,27.33
2022-12-16T12:03:15.997Z,25.23
2022-12-16T12:06:36.482Z,23.63
2022-12-16T12:10:01.291Z,22.03
2022-12-16T12:13:38.967Z,24.10
2022-12-16T12:17:15.899Z,26.87
2022-12-16T12:20:36.584Z,22.60
2022-12-16T12:24:21.255Z,24.10
2022-12-16T12:28:00.486Z,21.70
2022-12-16T12:32:08.965Z,19.97
2022-12-16T12:35:51.418Z,24.13
2022-12-16T12:39:11.915Z,65.27
2022-12-16T12:42:51.672Z,85.87
2022-12-16T12:46:48.463Z,47.47
2022-12-16T12:50:27.697Z,27.00
2022-12-16T12:54:14.479Z,26.13
2022-12-16T12:57:37.775Z,24.03
2022-12-16T13:01:05.504Z,23.77
2022-12-16T13:04:31.701Z,21.10
2022-12-16T13:07:52.058Z,18.47
2022-12-16T13:11:35.192Z,14.40
2022-12-16T13:14:56.762Z,12.93
2022-12-16T13:18:19.944Z,13.57
2022-12-16T13:21:57.448Z,12.17
2022-12-16T13:25:23.643Z,14.23
2022-12-16T13:28:46.040Z,15.33
2022-12-16T13:32:21.189Z,14.07
2022-12-16T13:35:44.694Z,18.53
2022-12-16T13:39:09.173Z,18.63
2022-12-16T13:42:59.017Z,20.33
2022-12-16T13:46:19.736Z,22.37
2022-12-16T13:49:55.553Z,20.17
2022-12-16T13:53:18.572Z,19.87
2022-12-16T13:57:03.911Z,21.83
2022-12-16T14:00:43.272Z,23.03
2022-12-16T14:04:09.403Z,21.37
2022-12-16T14:07:30.507Z,21.10
2022-12-16T14:10:57.795Z,23.00
2022-12-16T14:14:33.081Z,22.57
2022-12-16T14:18:03.886Z,23.43
2022-12-16T14:21:32.076Z,24.10
2022-12-16T14:24:54.084Z,29.57
2022-12-16T14:28:14.796Z,27.73
2022-12-16T14:31:41.389Z,27.60
2022-12-16T14:35:02.428Z,27.73
2022-12-16T14:38:43.804Z,26.87
2022-12-16T14:42:09.652Z,29.30
2022-12-16T14:45:45.712Z,30.03
2022-12-16T14:49:07.305Z,44.13
2022-12-16T14:52:46.581Z,29.07
2022-12-16T14:56:07.177Z,25.63
2022-12-16T14:59:35.016Z,26.77
2022-12-16T15:03:00.080Z,26.17
2022-12-16T15:06:24.623Z,22.60
2022-12-16T15:09:57.194Z,26.60
2022-12-16T15:13:18.406Z,25.30
2022-12-16T15:16:45.110Z,27.00
2022-12-16T15:20:08.829Z,23.87
2022-12-16T15:23:53.531Z,28.13
2022-12-16T15:27:40.646Z,27.03
2022-12-16T15:31:03.955Z,29.43
2022-12-16T15:34:52.302Z,25.87
2022-12-16T15:38:13.360Z,27.27
2022-12-16T15:41:57.149Z,28.50
2022-12-16T15:45:17.574Z,29.23
2022-12-16T15:48:48.711Z,29.00
2022-12-16T15:52:10.137Z,26.27
2022-12-16T15:55:56.020Z,27.27
2022-12-16T15:59:50.255Z,31.73
2022-12-16T16:03:11.219Z,29.27
2022-12-16T16:06:36.394Z,26.00
2022-12-16T16:09:58.634Z,23.80
2022-12-16T16:13:19.274Z,23.47
2022-12-16T16:16:39.980Z,27.20
2022-12-16T16:20:03.738Z,28.03
2022-12-16T16:23:25.039Z,23.67
2022-12-16T16:26:47.287Z,26.70
2022-12-16T16:30:07.987Z,28.87
2022-12-16T16:33:28.283Z,28.77
2022-12-16T16:36:48.903Z,23.23
2022-12-16T16:40:10.332Z,25.43
2022-12-16T16:43:32.914Z,28.90
2022-12-16T16:47:00.449Z,27.07
2022-12-16T16:50:21.113Z,28.67
2022-12-16T16:53:41.558Z,28.57
2022-12-16T16:57:02.345Z,49.93
2022-12-16T17:00:23.277Z,29.90
2022-12-16T17:03:44.246Z,24.17
2022-12-16T17:07:06.939Z,31.37
2022-12-16T17:10:29.082Z,25.57
2022-12-16T17:13:49.641Z,25.53
2022-12-16T17:17:10.058Z,27.77
2022-12-16T17:20:35.216Z,28.83
2022-12-16T17:23:56.443Z,28.93
2022-12-16T17:27:16.835Z,30.20
2022-12-16T17:30:46.569Z,29.23
2022-12-16T17:34:08.165Z,27.70
2022-12-16T17:37:28.908Z,27.80
2022-12-16T17:40:50.994Z,29.23
2022-12-16T17:44:12.475Z,28.57
2022-12-16T17:47:33.120Z,23.97
2022-12-16T17:50:53.922Z,27.30
2022-12-16T17:54:22.649Z,28.67
2022-12-16T17:57:46.566Z,25.63
2022-12-16T18:01:09.467Z,26.63
2022-12-16T18:04:31.592Z,28.10
2022-12-16T18:07:53.166Z,28.83
2022-12-16T18:11:16.484Z,29.50
2022-12-16T18:14:38.679Z,32.70
2022-12-16T18:18:00.633Z,34.73
2022-12-16T18:21:29.889Z,31.27
2022-12-16T18:24:52.697Z,30.93
2022-12-16T18:28:15.948Z,31.27
2022-12-16T18:31:38.540Z,34.13
2022-12-16T18:35:00.347Z,32.37
2022-12-16T18:38:22.622Z,37.67
2022-12-16T18:41:44.338Z,36.77
2022-12-16T18:45:11.117Z,33.40
2022-12-16T18:48:34.709Z,36.40
2022-12-16T18:51:55.462Z,33.33
2022-12-16T18:55:16.843Z,36.47
2022-12-16T18:58:53.581Z,35.63
2022-12-16T19:02:14.529Z,32.53
2022-12-16T19:05:34.866Z,32.63
2022-12-16T19:08:55.425Z,29.43
2022-12-16T19:12:16.690Z,27.80
2022-12-16T19:15:41.286Z,28.07
2022-12-16T19:19:02.628Z,27.87
2022-12-16T19:22:23.224Z,30.73
2022-12-16T19:25:55.004Z,28.80
2022-12-16T19:29:17.242Z,27.40
2022-12-16T19:32:38.446Z,29.53
2022-12-16T19:35:59.026Z,30.93
2022-12-16T19:39:19.780Z,32.37
2022-12-16T19:42:40.488Z,30.10
2022-12-16T19:46:01.655Z,30.33
2022-12-16T19:49:22.210Z,31.83
2022-12-16T19:52:43.228Z,35.63
2022-12-16T19:56:03.906Z,33.30
2022-12-16T19:59:24.470Z,30.83
2022-12-16T20:02:45.397Z,35.27
2022-12-16T20:06:06.847Z,38.33
2022-12-16T20:09:27.590Z,38.10
2022-12-16T20:12:48.844Z,34.87
2022-12-16T20:16:09.415Z,35.07
2022-12-16T20:19:30.315Z,32.40
2022-12-16T20:22:50.933Z,33.57
2022-12-16T20:26:13.988Z,34.53
2022-12-16T20:29:34.717Z,32.00
2022-12-16T20:33:08.993Z,31.27
2022-12-16T20:36:29.943Z,34.73
2022-12-16T20:39:56.344Z,33.20
2022-12-16T20:43:17.838Z,35.67
2022-12-16T20:46:38.426Z,34.93
2022-12-16T20:49:59.022Z,29.83
2022-12-16T20:53:19.897Z,29.30
2022-12-16T20:56:40.568Z,28.20
2022-12-16T21:00:01.590Z,31.17
2022-12-16T21:03:26.047Z,25.03
2022-12-16T21:06:46.902Z,25.67
2022-12-16T21:10:07.659Z,28.07
2022-12-16T21:13:31.515Z,25.70
2022-12-16T21:16:52.325Z,29.40
2022-12-16T21:20:16.925Z,27.97
2022-12-16T21:23:38.011Z,27.17
2022-12-16T21:26:58.638Z,26.10
2022-12-16T21:30:19.357Z,24.60
2022-12-16T21:33:40.083Z,27.87
2022-12-16T21:37:00.468Z,25.07
2022-12-16T21:40:21.201Z,22.50
2022-12-16T21:43:43.527Z,27.33
2022-12-16T21:47:04.296Z,24.13
2022-12-16T21:50:24.973Z,21.47
2022-12-16T21:53:46.185Z,22.20
2022-12-16T21:57:06.975Z,23.60
2022-12-16T22:00:28.343Z,27.17
2022-12-16T22:03:54.970Z,24.67
2022-12-16T22:07:17.450Z,24.37
2022-12-16T22:10:38.256Z,24.70
2022-12-16T22:13:58.834Z,25.27
2022-12-16T22:17:19.498Z,28.07
2022-12-16T22:20:41.287Z,27.57
2022-12-16T22:24:01.886Z,25.77
2022-12-16T22:27:22.878Z,27.20
2022-12-16T22:30:43.538Z,24.10
2022-12-16T22:34:07.862Z,25.73
2022-12-16T22:37:28.547Z,25.57
2022-12-16T22:40:49.372Z,29.37
2022-12-16T22:44:10.246Z,23.83
2022-12-16T22:47:30.854Z,24.70
2022-12-16T22:50:51.406Z,24.27
2022-12-16T22:54:12.792Z,22.43
2022-12-16T22:57:33.448Z,25.10
2022-12-16T23:00:56.388Z,25.07
2022-12-16T23:04:17.024Z,22.00
2022-12-16T23:07:37.839Z,22.23
2022-12-16T23:10:58.486Z,20.30
2022-12-16T23:14:19.900Z,23.03
2022-12-16T23:17:40.653Z,24.57
2022-12-16T23:21:06.781Z,23.07
2022-12-16T23:24:29.122Z,25.90
2022-12-16T23:27:50.499Z,22.67
2022-12-16T23:31:17.469Z,24.93
2022-12-16T23:34:42.345Z,25.63
2022-12-16T23:38:08.862Z,24.67
2022-12-16T23:41:30.651Z,26.13
2022-12-16T23:44:56.262Z,25.20
2022-12-16T23:48:26.872Z,23.57
2022-12-16T23:51:47.284Z,26.90
2022-12-16T23:55:08.304Z,24.80
2022-12-16T23:58:29.033Z,22.87
